SBOSBO NWI / EGSH
Speedbird OnlineSpeedbird Online NWI / EGSH

Norwich International Airport
09:34 21.2°C

Location Norwich, United Kingdom
Latitude: 52.6758003235
Longitude: 1.28278005123
Local Time 09:34 on 18 Jul 2024
UTC +1 hours (Europe/London)
METAR EGSH 180750Z 18006KT 140V230 CAVOK 20/15 Q1022 NOSIG
TAF TAF EGSH 180754Z 1809/1818 20008KT CAVOK
Weather As Of 18 Jul 2024 09:34
Description Clear sky
Wind 15 km/h from South (180°)
Cloud Cover 0%
Precipitation Rain: none, Snow: none
Sunrise 04:53
Sunset 21:08
NOTAM 7 active NOTAM
Rotations During the last 90 days there were
1 flights from LCY
1 flights to LCY
Web Airport Website | Wikipedia
Codes IATA: NWI
ICAO: EGSH
Altitude 36 Meter / 117 Feet
Distance 151 KM / 94 Miles
from London.
Runways
RunwayLength (m)Surface
041266Asphalt
091841Asphalt
221266Asphalt
271841Asphalt
Radio
TypeDescriptionFrequency
APPAPP119.35
ATISATIS128.625
RDRDirector128.325
TWRTWR124.25
Live ATC



Support Speedbird Online

© 2017-2024 Speedbird Online